Charlbury, United Kingdom
Current Conditions -  °F | °C
As of 12:20 PM on Wednesday 26 Nov 2014 (Local Time) from EGTK Reporting Station
Haze Haze  
Wind Chill: 46°   Ceiling: 300
Heat Index: 46°   Visibility: 1.2mi
Dew Point: 46°   Wind: 1mph
Humidity: 100%   Direction: 30°NNE
Pressure: 29.83"   Gusts: NA
Location:  51.87°N, 1.48°W
Report Text: EGTK 261220Z 03001KT 2000 BR SCT002 OVC003 08/08 Q1010
Loading
Personal Weather Stations






























Interactive Weather Map New forecast layout! Learn more

10-Day Weather Forecast

Advertisements
Track Severe Weather on mobile